Farmville, VA

4:50 PM EST on November 20, 2019 (GMT -0500)
Farmville Regional

Weather History for KFVX - October, 2019

Change the Weather History Date:

Wednesday, October 23, 2019

  Actual Average Record
Temperature  
Mean Temperature 54 °F -  
Max Temperature 67 °F 70 °F 87 °F (1941)
Min Temperature 39 °F 41 °F 21 °F (1930)
Degree Days  
Heating Degree Days 12    
Growing Degree Days 4 (Base 50)    
Moisture  
Dew Point 43 °F    
Average Humidity 74    
Maximum Humidity 100    
Minimum Humidity 31    
Precipitation  
Precipitation 0.01 in - - ()
Sea Level Pressure  
Sea Level Pressure 30.08 in    
Wind  
Wind Speed 1 mph ()    
Max Wind Speed 9 mph    
Max Gust Speed -    
Visibility 8.0 miles    
Events Fog    
Averages and records for this station are not official NWS values.
T = Trace of Precipitation, MM = Missing Value Source: Averaged Metar Reports

Daily Weather History Graph

Daily Weather History Graph

Search for Another Location

Airport or City:

Astronomy

Oct. 23, 2019 Rise Set
Actual Time 7:29 AM EDT 6:26 PM EDT
Civil Twilight 7:02 AM EDT 6:53 PM EDT
Nautical Twilight 6:32 AM EDT 7:23 PM EDT
Astronomical Twilight 6:01 AM EDT 7:53 PM EDT
Moon 1:54 AM EDT (10/23) 4:07 PM EDT (10/23)
Length of Visible Light 11h 50m
Length of Day
10h 57m
Waning Crescent, 27% of the Moon is Illuminated
Oct 23
Waning Crescent
Oct 27
New
Nov 4
First Quarter
Nov 12
Full
Nov 19
Last Quarter

Hourly Weather History & Observations

Time (EDT) Temp. Windchill Dew Point Humidity Pressure Visibility Wind Dir Wind Speed Gust Speed Precip Events Conditions
12:15 AM 53.6 °F - 53.6 °F 100% 29.89 in 0.5 mi Calm Calm - N/A Fog Fog
12:35 AM 51.8 °F - 51.8 °F 100% 29.89 in 0.5 mi Calm Calm - N/A Fog Fog
12:55 AM 51.1 °F - 51.1 °F 100% 29.89 in 0.8 mi Calm Calm - N/A   Overcast
1:35 AM 51.8 °F - 51.8 °F 100% 29.90 in 0.2 mi Calm Calm - N/A Fog Fog
1:55 AM 51.8 °F - 51.8 °F 100% 29.91 in 0.2 mi Calm Calm - N/A Fog Fog
2:15 AM 51.1 °F - 51.1 °F 100% 29.91 in 0.5 mi Calm Calm - N/A Fog Fog
2:55 AM 50.9 °F - 50.9 °F 100% 29.93 in 0.5 mi Calm Calm - 0.01 in Fog Fog
3:15 AM 50.0 °F - 50.0 °F 100% 29.93 in 0.2 mi Calm Calm - N/A Fog Fog
3:55 AM 48.7 °F - 48.7 °F 100% 29.94 in 0.2 mi Calm Calm - N/A Fog Fog
4:15 AM 47.5 °F - 47.5 °F 100% 29.96 in 0.8 mi Calm Calm - N/A   Overcast
4:55 AM 45.7 °F - 45.7 °F 100% 29.97 in 4.0 mi Calm Calm - N/A   Clear
5:15 AM 44.4 °F - 44.4 °F 100% 29.98 in 4.0 mi Calm Calm - N/A   Clear
5:35 AM 44.6 °F - 44.6 °F 100% 29.98 in 10.0 mi Calm Calm - N/A   Clear
5:55 AM 44.4 °F - 44.4 °F 100% 30.00 in 10.0 mi Calm Calm - N/A   Clear
6:15 AM 44.1 °F - 44.1 °F 100% 30.01 in 10.0 mi Calm Calm - N/A   Clear
6:35 AM 43.5 °F - 43.5 °F 100% 30.02 in 10.0 mi Calm Calm - N/A   Clear
6:55 AM 43.2 °F - 43.2 °F 100% 30.03 in 10.0 mi Calm Calm - N/A   Clear
7:35 AM 43.0 °F - 43.0 °F 100% 30.04 in 1.0 mi Calm Calm - N/A   Mostly Cloudy
7:55 AM 42.6 °F - 42.6 °F 100% 30.04 in 0.5 mi Calm Calm - N/A Fog Fog
8:15 AM 43.2 °F - 43.2 °F 100% 30.05 in 1.2 mi Calm Calm - N/A   Scattered Clouds
8:35 AM 45.1 °F - 45.1 °F 100% 30.07 in 10.0 mi Calm Calm - N/A   Clear
8:55 AM 48.6 °F - 48.6 °F 100% 30.08 in 10.0 mi Calm Calm - N/A   Clear
9:15 AM 50.7 °F - 49.3 °F 95% 30.09 in 10.0 mi Calm Calm - N/A   Clear
9:35 AM 52.9 °F - 48.9 °F 86% 30.09 in 10.0 mi WSW 3.5 mph - N/A   Clear
9:55 AM 55.4 °F - 48.9 °F 79% 30.09 in 10.0 mi Calm Calm - N/A   Clear
10:15 AM 56.8 °F - 48.9 °F 75% 30.09 in 10.0 mi Calm Calm - N/A   Clear
10:55 AM 60.1 °F - 45.0 °F 57% 30.10 in 10.0 mi West 4.6 mph - N/A   Clear
11:15 AM 61.3 °F - 43.9 °F 53% 30.10 in 10.0 mi West 3.5 mph - N/A   Clear
11:35 AM 62.4 °F - 41.4 °F 46% 30.10 in 10.0 mi SW 4.6 mph - N/A   Clear
11:55 AM 62.4 °F - 41.9 °F 47% 30.11 in 10.0 mi WSW 6.9 mph - N/A   Clear
12:15 PM 63.1 °F - 41.7 °F 46% 30.11 in 10.0 mi West 5.8 mph - N/A   Clear
12:35 PM 63.7 °F - 39.9 °F 42% 30.11 in 10.0 mi WNW 3.5 mph - N/A   Clear
12:55 PM 63.9 °F - 39.0 °F 40% 30.11 in 10.0 mi WNW 3.5 mph - N/A   Clear
1:15 PM 64.6 °F - 38.5 °F 38% 30.10 in 10.0 mi WNW 4.6 mph - N/A   Clear
1:35 PM 64.4 °F - 39.2 °F 40% 30.09 in 10.0 mi WSW 5.8 mph - N/A   Clear
1:55 PM 65.3 °F - 37.4 °F 36% 30.09 in 10.0 mi SSW 4.6 mph - N/A   Clear
2:15 PM 65.5 °F - 37.4 °F 35% 30.09 in 10.0 mi WSW 9.2 mph - N/A   Clear
2:35 PM 66.2 °F - 36.7 °F 34% 30.09 in 10.0 mi WSW 3.5 mph - N/A   Clear
2:55 PM 66.6 °F - 36.3 °F 33% 30.10 in 10.0 mi West 6.9 mph - N/A   Clear
3:15 PM 66.7 °F - 34.9 °F 31% 30.10 in 10.0 mi WSW 4.6 mph - N/A   Clear
3:35 PM 66.6 °F - 34.9 °F 31% 30.10 in 10.0 mi WNW 4.6 mph - N/A   Clear
3:55 PM 67.1 °F - 35.8 °F 31% 30.10 in 10.0 mi WNW 3.5 mph - N/A   Clear
4:15 PM 66.4 °F - 35.1 °F 31% 30.11 in 10.0 mi NNW 4.6 mph - N/A   Clear
4:35 PM 66.4 °F - 34.9 °F 31% 30.11 in 10.0 mi Calm Calm - N/A   Clear
4:55 PM 66.2 °F - 36.5 °F 33% 30.11 in 10.0 mi West 3.5 mph - N/A   Clear
5:15 PM 64.9 °F - 37.4 °F 36% 30.11 in 10.0 mi Calm Calm - N/A   Clear
5:35 PM 64.4 °F - 37.2 °F 37% 30.12 in 10.0 mi WSW 3.5 mph - N/A   Clear
5:55 PM 60.3 °F - 38.8 °F 45% 30.13 in 10.0 mi Calm Calm - N/A   Clear
6:15 PM 56.1 °F - 40.1 °F 55% 30.14 in 10.0 mi Calm Calm - N/A   Clear
6:35 PM 55.2 °F - 39.7 °F 56% 30.14 in 10.0 mi Calm Calm - N/A   Clear
6:55 PM 55.4 °F - 39.6 °F 55% 30.15 in 10.0 mi Calm Calm - N/A   Clear
7:15 PM 52.5 °F - 39.2 °F 61% 30.16 in 10.0 mi Calm Calm - N/A   Clear
7:35 PM 50.4 °F - 42.3 °F 74% 30.17 in 10.0 mi Calm Calm - N/A   Clear
7:55 PM 49.1 °F - 42.3 °F 77% 30.18 in 10.0 mi Calm Calm - N/A   Clear
8:15 PM 47.5 °F - 43.2 °F 85% 30.19 in 10.0 mi Calm Calm - N/A   Clear
8:35 PM 46.6 °F - 42.6 °F 86% 30.19 in 10.0 mi Calm Calm - N/A   Clear
8:55 PM 48.0 °F - 43.0 °F 83% 30.19 in 10.0 mi Calm Calm - N/A   Clear
9:15 PM 43.9 °F 42.3 °F 42.3 °F 94% 30.20 in 10.0 mi SSE 3.5 mph - N/A   Clear
9:35 PM 42.1 °F - 41.4 °F 97% 30.20 in 10.0 mi Calm Calm - N/A   Clear
9:55 PM 42.8 °F - 42.4 °F 99% 30.21 in 10.0 mi Calm Calm - N/A   Clear
10:15 PM 41.0 °F - 40.5 °F 98% 30.22 in 10.0 mi Calm Calm - N/A   Clear
10:35 PM 41.7 °F - 41.5 °F 99% 30.22 in 10.0 mi Calm Calm - N/A   Clear
10:55 PM 41.4 °F - 41.4 °F 100% 30.22 in 10.0 mi Calm Calm - N/A   Clear
11:15 PM 41.7 °F - 40.8 °F 97% 30.22 in 10.0 mi Calm Calm - N/A   Clear
11:35 PM 40.1 °F - 39.9 °F 99% 30.22 in 10.0 mi Calm Calm - N/A   Clear
11:55 PM 39.4 °F - 39.0 °F 99% 30.22 in 10.0 mi Calm Calm - N/A   Clear